createdAt,value
2023-11-01T00:02:23.563Z,100459.50
2023-11-01T00:04:50.276Z,100450.91
2023-11-01T00:07:16.907Z,100449.19
2023-11-01T00:09:43.630Z,100419.13
2023-11-01T00:12:10.312Z,100436.31
2023-11-01T00:14:37.047Z,100433.75
2023-11-01T00:17:03.742Z,100412.28
2023-11-01T00:19:30.316Z,100427.75
2023-11-01T00:21:56.942Z,100422.63
2023-11-01T00:24:23.591Z,100377.06
2023-11-01T00:26:50.288Z,100388.25
2023-11-01T00:29:16.936Z,100420.94
2023-11-01T00:31:43.622Z,100418.34
2023-11-01T00:34:10.338Z,100390.84
2023-11-01T00:36:37.041Z,100410.63
2023-11-01T00:39:04.216Z,100411.47
2023-11-01T00:41:30.909Z,100371.94
2023-11-01T00:43:57.568Z,100377.09
2023-11-01T00:46:24.443Z,100363.34
2023-11-01T00:48:51.105Z,100389.13
2023-11-01T00:51:17.707Z,100368.53
2023-11-01T00:53:44.418Z,100392.59
2023-11-01T00:56:11.173Z,100380.56
2023-11-01T00:58:39.975Z,100352.22
2023-11-01T01:01:07.110Z,100345.34
2023-11-01T01:03:35.350Z,100343.59
2023-11-01T01:06:03.901Z,100333.31
2023-11-01T01:08:32.572Z,100349.63
2023-11-01T01:10:59.327Z,100372.84
2023-11-01T01:13:25.947Z,100331.59
2023-11-01T01:15:52.643Z,100333.31
2023-11-01T01:18:21.600Z,100371.13
2023-11-01T01:20:49.179Z,100351.38
2023-11-01T01:23:16.022Z,100363.44
2023-11-01T01:25:42.691Z,100365.13
2023-11-01T01:28:09.723Z,100364.28
2023-11-01T01:30:36.497Z,100344.53
2023-11-01T01:33:03.160Z,100355.69
2023-11-01T01:35:29.915Z,100352.28
2023-11-01T01:37:56.553Z,100355.72
2023-11-01T01:40:23.254Z,100345.41
2023-11-01T01:42:49.965Z,100335.09
2023-11-01T01:45:16.923Z,100312.75
2023-11-01T01:47:43.832Z,100340.25
2023-11-01T01:50:10.864Z,100303.31
2023-11-01T01:52:37.709Z,100334.22
2023-11-01T01:55:07.594Z,100330.78
2023-11-01T01:57:35.536Z,100315.28
2023-11-01T02:00:03.875Z,100309.31
2023-11-01T02:02:30.610Z,100311.84
2023-11-01T02:04:57.264Z,100307.59
2023-11-01T02:07:23.870Z,100310.13
2023-11-01T02:09:50.546Z,100305.00
2023-11-01T02:12:18.404Z,100274.94
2023-11-01T02:14:45.321Z,100273.22
2023-11-01T02:17:14.179Z,100271.50
2023-11-01T02:19:40.799Z,100286.09
2023-11-01T02:22:07.484Z,100283.50
2023-11-01T02:24:34.324Z,100272.34
2023-11-01T02:27:02.326Z,100282.63
2023-11-01T02:29:28.981Z,100286.94
2023-11-01T02:31:55.669Z,100282.63
2023-11-01T02:34:22.859Z,100249.16
2023-11-01T02:36:50.550Z,100250.00
2023-11-01T02:39:19.025Z,100271.44
2023-11-01T02:41:45.822Z,100245.72
2023-11-01T02:44:12.508Z,100243.16
2023-11-01T02:46:39.170Z,100246.56
2023-11-01T02:49:05.821Z,100243.09
2023-11-01T02:51:32.539Z,100256.84
2023-11-01T02:53:59.477Z,100226.78
2023-11-01T02:56:26.297Z,100211.38
2023-11-01T02:58:53.456Z,100247.38
2023-11-01T03:01:22.686Z,100243.97
2023-11-01T03:03:50.691Z,100242.25
2023-11-01T03:06:17.742Z,100237.91
2023-11-01T03:08:46.984Z,100236.22
2023-11-01T03:11:13.961Z,100229.34
2023-11-01T03:13:40.657Z,100228.50
2023-11-01T03:16:07.701Z,100230.22
2023-11-01T03:18:35.016Z,100236.25
2023-11-01T03:21:01.622Z,100219.09
2023-11-01T03:23:28.234Z,100232.81
2023-11-01T03:25:54.828Z,100222.53
2023-11-01T03:28:21.468Z,100218.22
2023-11-01T03:30:48.104Z,100210.53
2023-11-01T03:33:14.748Z,100213.09
2023-11-01T03:35:41.519Z,100218.25
2023-11-01T03:38:08.140Z,100213.94
2023-11-01T03:40:34.797Z,100190.75
2023-11-01T03:43:01.449Z,100177.03
2023-11-01T03:45:28.032Z,100210.47
2023-11-01T03:47:54.768Z,100205.31
2023-11-01T03:50:22.163Z,100195.88
2023-11-01T03:52:50.737Z,100211.34
2023-11-01T03:55:17.347Z,100193.31
2023-11-01T03:57:43.938Z,100198.47
2023-11-01T04:00:11.515Z,100203.59
2023-11-01T04:02:38.559Z,100200.16
2023-11-01T04:05:05.597Z,100195.88
2023-11-01T04:07:32.259Z,100191.59
2023-11-01T04:09:58.912Z,100195.88
2023-11-01T04:12:25.513Z,100147.84
2023-11-01T04:14:52.646Z,100190.69
2023-11-01T04:17:20.081Z,100171.00
2023-11-01T04:19:46.769Z,100164.09
2023-11-01T04:22:13.396Z,100164.97
2023-11-01T04:24:39.992Z,100169.22
2023-11-01T04:27:06.757Z,100161.50
2023-11-01T04:29:33.374Z,100172.63
2023-11-01T04:32:01.023Z,100166.63
2023-11-01T04:34:27.679Z,100164.03
2023-11-01T04:36:54.285Z,100136.59
2023-11-01T04:39:21.672Z,100167.47
2023-11-01T04:41:48.381Z,100144.28
2023-11-01T04:44:18.575Z,100141.72
2023-11-01T04:46:45.668Z,100155.44
2023-11-01T04:49:12.362Z,100133.13
2023-11-01T04:51:38.932Z,100151.97
2023-11-01T04:54:07.747Z,100121.94
2023-11-01T04:56:34.819Z,100139.09
2023-11-01T04:59:01.762Z,100109.94
2023-11-01T05:01:34.069Z,100133.91
2023-11-01T05:04:00.879Z,100120.19
2023-11-01T05:06:28.002Z,100121.00
2023-11-01T05:08:55.045Z,100126.13
2023-11-01T05:11:23.736Z,100124.44
2023-11-01T05:13:50.708Z,100118.44
2023-11-01T05:16:17.685Z,100123.56
2023-11-01T05:18:44.316Z,100111.53
2023-11-01T05:21:10.924Z,100108.91
2023-11-01T05:23:37.575Z,100106.34
2023-11-01T05:26:04.578Z,100098.63
2023-11-01T05:28:31.195Z,100096.94
2023-11-01T05:30:57.815Z,100102.91
2023-11-01T05:33:24.590Z,100103.72
2023-11-01T05:35:51.260Z,100090.88
2023-11-01T05:38:17.899Z,100091.66
2023-11-01T05:40:44.620Z,100078.00
2023-11-01T05:43:11.876Z,100095.97
2023-11-01T05:45:38.465Z,100074.50
2023-11-01T05:48:10.006Z,100087.41
2023-11-01T05:50:37.718Z,100076.19
2023-11-01T05:53:10.125Z,100071.03
2023-11-01T05:55:48.784Z,100067.63
2023-11-01T05:58:25.015Z,100076.19
2023-11-01T06:00:51.669Z,100076.22
2023-11-01T06:03:18.419Z,100065.03
2023-11-01T06:05:45.191Z,100054.72
2023-11-01T06:08:11.820Z,100061.59
2023-11-01T06:10:38.939Z,100059.88
2023-11-01T06:13:09.624Z,100078.72
2023-11-01T06:15:39.596Z,100062.44
2023-11-01T06:18:08.541Z,100063.25
2023-11-01T06:20:36.613Z,100063.19
2023-11-01T06:23:09.313Z,100061.53
2023-11-01T06:25:39.806Z,100067.44
2023-11-01T06:28:06.445Z,100075.16
2023-11-01T06:30:33.033Z,100070.00
2023-11-01T06:32:59.798Z,100075.09
2023-11-01T06:35:26.514Z,100069.06
2023-11-01T06:37:53.212Z,100061.38
2023-11-01T06:40:19.871Z,100070.72
2023-11-01T06:42:46.480Z,100042.47
2023-11-01T06:45:15.864Z,100068.16
2023-11-01T06:47:42.577Z,100068.06
2023-11-01T06:50:09.768Z,100074.97
2023-11-01T06:52:36.490Z,100067.19
2023-11-01T06:55:03.325Z,100068.00
2023-11-01T06:57:29.996Z,100071.44
2023-11-01T06:59:56.876Z,100061.97
2023-11-01T07:02:23.575Z,100057.63
2023-11-01T07:04:50.144Z,100061.03
2023-11-01T07:07:18.581Z,100067.06
2023-11-01T07:09:46.732Z,100058.44
2023-11-01T07:12:13.328Z,100069.56
2023-11-01T07:14:39.990Z,100055.81
2023-11-01T07:17:06.682Z,100053.22
2023-11-01T07:19:33.322Z,100060.97
2023-11-01T07:22:00.025Z,100075.56
2023-11-01T07:24:26.671Z,100066.94
2023-11-01T07:26:53.420Z,100071.19
2023-11-01T07:29:20.087Z,100064.28
2023-11-01T07:31:46.736Z,100063.41
2023-11-01T07:34:13.339Z,100049.59
2023-11-01T07:36:39.984Z,100057.34
2023-11-01T07:39:06.634Z,100053.03
2023-11-01T07:41:33.455Z,100050.44
2023-11-01T07:44:00.152Z,100048.69
2023-11-01T07:46:26.721Z,100050.38
2023-11-01T07:48:53.365Z,100054.69
2023-11-01T07:51:19.896Z,100063.25
2023-11-01T07:53:46.553Z,100060.66
2023-11-01T07:56:13.191Z,100056.31
2023-11-01T07:58:39.915Z,100055.47
2023-11-01T08:01:06.731Z,100046.84
2023-11-01T08:03:35.848Z,100027.19
2023-11-01T08:06:02.778Z,100045.16
2023-11-01T08:08:29.490Z,100038.25
2023-11-01T08:10:56.083Z,100044.22
2023-11-01T08:13:23.404Z,100020.22
2023-11-01T08:15:50.483Z,100047.56
2023-11-01T08:18:17.252Z,100045.88
2023-11-01T08:20:44.167Z,100039.75
2023-11-01T08:23:10.904Z,100039.75
2023-11-01T08:25:38.530Z,100027.72
2023-11-01T08:28:05.573Z,100041.41
2023-11-01T08:30:32.177Z,100037.94
2023-11-01T08:33:01.562Z,100006.28
2023-11-01T08:35:28.304Z,100033.69
2023-11-01T08:37:55.905Z,100038.84
2023-11-01T08:40:22.559Z,100031.91
2023-11-01T08:42:49.157Z,100034.50
2023-11-01T08:45:16.007Z,100036.13
2023-11-01T08:47:45.320Z,100021.59
2023-11-01T08:50:13.846Z,100035.19
2023-11-01T08:52:44.100Z,100030.06
2023-11-01T08:55:14.713Z,100021.34
2023-11-01T08:57:42.312Z,100029.09
2023-11-01T09:00:10.222Z,100022.19
2023-11-01T09:02:36.912Z,100022.16
2023-11-01T09:05:03.754Z,100017.78
2023-11-01T09:07:30.323Z,100017.75
2023-11-01T09:10:00.546Z,100027.25
2023-11-01T09:12:29.214Z,100021.22
2023-11-01T09:14:56.007Z,100014.44
2023-11-01T09:17:22.798Z,100022.97
2023-11-01T09:19:49.460Z,100010.88
2023-11-01T09:22:16.639Z,100015.97
2023-11-01T09:24:46.414Z,100002.16
2023-11-01T09:27:13.036Z,100014.09
2023-11-01T09:29:39.680Z,100007.91
2023-11-01T09:32:06.806Z,100004.44
2023-11-01T09:34:34.173Z,99984.66
2023-11-01T09:37:00.952Z,99906.13
2023-11-01T09:39:27.736Z,99985.31
2023-11-01T09:42:31.822Z,99983.44
2023-11-01T09:47:34.206Z,99979.91
2023-11-01T09:50:01.635Z,99985.03
2023-11-01T09:52:30.442Z,99932.84
2023-11-01T09:55:01.391Z,99936.19
2023-11-01T09:57:30.306Z,99900.38
2023-11-01T09:59:57.701Z,99935.44
2023-11-01T10:02:24.691Z,99976.34
2023-11-01T10:04:52.379Z,99979.72
2023-11-01T10:07:19.215Z,99962.63
2023-11-01T10:09:48.555Z,99931.06
2023-11-01T10:12:21.025Z,99914.56
2023-11-01T10:14:50.529Z,99895.88
2023-11-01T10:17:17.771Z,99913.69
2023-11-01T10:19:47.503Z,99887.22
2023-11-01T10:22:14.911Z,99933.34
2023-11-01T10:24:45.174Z,99821.41
2023-11-01T10:27:12.021Z,99938.25
2023-11-01T10:29:48.286Z,99934.78
2023-11-01T10:32:18.000Z,99901.44
2023-11-01T10:34:44.896Z,99888.56
2023-11-01T10:37:11.623Z,99920.13
2023-11-01T10:39:41.316Z,99877.31
2023-11-01T10:42:09.769Z,99888.31
2023-11-01T10:44:36.873Z,99796.13
2023-11-01T10:47:11.447Z,99841.13
2023-11-01T10:49:41.955Z,99805.91
2023-11-01T10:52:13.397Z,99827.19
2023-11-01T10:54:41.231Z,99811.66
2023-11-01T10:57:08.333Z,99830.59
2023-11-01T10:59:54.891Z,99896.25
2023-11-01T11:02:25.845Z,99786.31
2023-11-01T11:05:06.600Z,99851.19
2023-11-01T11:07:55.153Z,99854.50
2023-11-01T11:10:30.050Z,99868.22
2023-11-01T11:13:09.194Z,99876.63
2023-11-01T11:15:52.394Z,99868.09
2023-11-01T11:18:23.456Z,99873.13
2023-11-01T11:20:53.269Z,99870.38
2023-11-01T11:23:23.397Z,99823.94
2023-11-01T11:25:53.324Z,99856.16
2023-11-01T11:28:24.771Z,99854.41
2023-11-01T11:31:09.199Z,99844.03
2023-11-01T11:34:00.193Z,99708.44
2023-11-01T11:39:21.903Z,99807.09
2023-11-01T11:41:52.944Z,99801.97
2023-11-01T11:44:24.027Z,99825.94
2023-11-01T11:47:00.774Z,99801.06
2023-11-01T11:49:30.076Z,99769.88
2023-11-01T11:52:10.808Z,99811.81
2023-11-01T11:54:37.705Z,99791.31
2023-11-01T11:57:09.896Z,99802.31
2023-11-01T11:59:37.193Z,99775.88
2023-11-01T12:02:11.263Z,99762.84
2023-11-01T12:04:42.282Z,99784.25
2023-11-01T12:07:09.223Z,99758.41
2023-11-01T12:09:39.126Z,99750.84
2023-11-01T12:12:15.643Z,99746.56
2023-11-01T12:14:43.301Z,99761.59
2023-11-01T12:17:09.989Z,99741.78
2023-11-01T12:19:47.356Z,99773.41
2023-11-01T12:22:15.645Z,99732.41
2023-11-01T12:24:48.120Z,99746.50
2023-11-01T12:27:18.485Z,99725.09
2023-11-01T12:30:04.326Z,99731.69
2023-11-01T12:40:31.746Z,99708.59
2023-11-01T12:43:09.990Z,99654.94
2023-11-01T12:45:44.674Z,99634.75
2023-11-01T12:48:13.648Z,99682.94
2023-11-01T12:50:43.259Z,99621.16
2023-11-01T12:53:11.424Z,99690.50
2023-11-01T12:58:31.433Z,99691.56
2023-11-01T13:00:58.246Z,99663.66
2023-11-01T13:03:25.072Z,99672.25
2023-11-01T13:05:52.008Z,99664.31
2023-11-01T13:08:19.656Z,99677.66
2023-11-01T13:10:46.868Z,99662.09
2023-11-01T13:13:14.381Z,99663.00
2023-11-01T13:15:45.563Z,99660.16
2023-11-01T13:18:14.792Z,99657.56
2023-11-01T13:20:42.338Z,99648.91
2023-11-01T13:23:19.803Z,99563.63
2023-11-01T13:25:54.097Z,99574.84
2023-11-01T13:28:20.752Z,99630.66
2023-11-01T13:30:47.474Z,99609.63
2023-11-01T13:33:14.169Z,99609.63
2023-11-01T13:35:40.941Z,99557.34
2023-11-01T13:38:08.686Z,99531.16
2023-11-01T13:40:36.266Z,99488.25
2023-11-01T13:43:03.275Z,99605.81
2023-11-01T13:45:29.996Z,99601.00
2023-11-01T13:47:57.529Z,99607.09
2023-11-01T13:50:24.179Z,99582.28
2023-11-01T13:52:51.001Z,99586.06
2023-11-01T13:55:17.668Z,99580.38
2023-11-01T13:57:44.326Z,99571.69
2023-11-01T14:00:11.416Z,99575.66
2023-11-01T14:02:38.257Z,99571.75
2023-11-01T14:05:05.153Z,99574.25
2023-11-01T14:07:31.819Z,99571.66
2023-11-01T14:09:58.453Z,99535.81
2023-11-01T14:12:25.066Z,99561.16
2023-11-01T14:14:51.816Z,99554.50
2023-11-01T14:17:18.780Z,99547.91
2023-11-01T14:19:45.476Z,99537.81
2023-11-01T14:22:12.150Z,99526.69
2023-11-01T14:24:38.838Z,99538.06
2023-11-01T14:27:05.954Z,99532.34
2023-11-01T14:29:33.155Z,99537.59
2023-11-01T14:32:00.468Z,99499.44
2023-11-01T14:34:29.068Z,99515.50
2023-11-01T14:36:56.186Z,99535.16
2023-11-01T14:39:23.014Z,99523.41
2023-11-01T14:41:51.296Z,99533.66
2023-11-01T14:44:18.026Z,99538.00
2023-11-01T14:46:44.698Z,99521.72
2023-11-01T14:49:11.752Z,99486.25
2023-11-01T14:51:42.311Z,99509.22
2023-11-01T14:54:09.044Z,99501.66
2023-11-01T14:56:38.365Z,99495.63
2023-11-01T14:59:05.786Z,99499.75
2023-11-01T15:01:34.462Z,99475.50
2023-11-01T15:04:01.821Z,99485.63
2023-11-01T15:06:28.444Z,99503.78
2023-11-01T15:08:55.067Z,99496.69
2023-11-01T15:11:21.799Z,99501.50
2023-11-01T15:13:48.407Z,99496.44
2023-11-01T15:16:15.004Z,99481.19
2023-11-01T15:18:41.658Z,99478.47
2023-11-01T15:21:09.228Z,99486.97
2023-11-01T15:23:39.011Z,99464.13
2023-11-01T15:26:05.880Z,99481.75
2023-11-01T15:28:35.647Z,99476.72
2023-11-01T15:31:03.045Z,99470.94
2023-11-01T15:33:30.809Z,99461.69
2023-11-01T15:35:57.697Z,99440.25
2023-11-01T15:38:24.354Z,99440.78
2023-11-01T15:40:50.947Z,99449.66
2023-11-01T15:43:17.577Z,99476.22
2023-11-01T15:45:45.202Z,99478.28
2023-11-01T15:48:11.983Z,99491.28
2023-11-01T15:50:43.027Z,99493.16
2023-11-01T15:53:10.084Z,99486.28
2023-11-01T15:55:36.693Z,99497.59
2023-11-01T15:58:03.310Z,99503.78
2023-11-01T16:00:30.716Z,99503.91
2023-11-01T16:02:57.527Z,99505.75
2023-11-01T16:05:24.381Z,99489.63
2023-11-01T16:07:51.039Z,99459.88
2023-11-01T16:10:17.788Z,99491.34
2023-11-01T16:12:44.404Z,99489.75
2023-11-01T16:15:11.870Z,99490.75
2023-11-01T16:17:38.651Z,99496.75
2023-11-01T16:20:05.792Z,99503.56
2023-11-01T16:22:32.528Z,99484.94
2023-11-01T16:24:59.154Z,99503.66
2023-11-01T16:27:25.971Z,99496.78
2023-11-01T16:29:52.749Z,99495.19
2023-11-01T16:32:19.459Z,99475.72
2023-11-01T16:34:49.581Z,99484.97
2023-11-01T16:40:14.179Z,99478.97
2023-11-01T16:42:44.285Z,99481.66
2023-11-01T16:45:42.889Z,99452.63
2023-11-01T16:48:31.708Z,99433.91
2023-11-01T16:50:58.821Z,99473.84
2023-11-01T16:56:20.710Z,99321.38
2023-11-01T16:59:13.679Z,99427.78
2023-11-01T17:01:40.876Z,99430.88
2023-11-01T17:04:10.308Z,99393.34
2023-11-01T17:06:38.256Z,99447.91
2023-11-01T17:09:05.383Z,99423.94
2023-11-01T17:11:32.257Z,99414.88
2023-11-01T17:13:59.107Z,99474.28
2023-11-01T17:16:29.746Z,99418.31
2023-11-01T17:18:59.005Z,99414.09
2023-11-01T17:21:26.930Z,99385.16
2023-11-01T17:23:54.774Z,99397.25
2023-11-01T17:26:45.651Z,99472.25
2023-11-01T17:29:34.853Z,99473.06
2023-11-01T17:35:08.669Z,99449.44
2023-11-01T17:37:46.878Z,99467.06
2023-11-01T17:40:18.198Z,99452.69
2023-11-01T17:53:08.465Z,99416.22
2023-11-01T17:59:30.927Z,99435.84
2023-11-01T18:02:52.657Z,99453.66
2023-11-01T18:17:28.195Z,99406.88
2023-11-01T18:20:08.679Z,99454.66
2023-11-01T18:23:06.499Z,99449.50
2023-11-01T18:29:36.001Z,99344.25
2023-11-01T18:32:38.438Z,99366.28
2023-11-01T18:38:17.419Z,99402.88
2023-11-01T18:44:10.163Z,99414.78
2023-11-01T18:47:02.061Z,99350.16
2023-11-01T18:53:43.031Z,99362.88
2023-11-01T18:56:47.314Z,99333.19
2023-11-01T18:59:39.636Z,99311.91
2023-11-01T19:02:36.622Z,99394.53
2023-11-01T19:05:35.948Z,99316.34
2023-11-01T19:08:41.586Z,99368.31
2023-11-01T19:14:29.588Z,99422.97
2023-11-01T19:23:29.931Z,99376.97
2023-11-01T19:28:58.044Z,99342.09
2023-11-01T19:34:44.145Z,99325.97
2023-11-01T19:44:02.713Z,99469.16
2023-11-01T19:49:04.535Z,99401.81
2023-11-01T19:55:29.997Z,99328.53
2023-11-01T20:02:17.937Z,99464.94
2023-11-01T20:04:56.227Z,99447.06
2023-11-01T20:07:26.681Z,99314.31
2023-11-01T20:10:08.469Z,99444.56
2023-11-01T20:19:03.048Z,99455.72
2023-11-01T20:21:45.261Z,99456.59
2023-11-01T20:24:34.502Z,99452.34
2023-11-01T20:27:28.665Z,99458.34
2023-11-01T20:29:56.992Z,99451.47
2023-11-01T20:35:13.691Z,99447.22
2023-11-01T20:37:51.915Z,99441.28
2023-11-01T20:40:33.543Z,99423.41
2023-11-01T20:43:01.381Z,99419.97
2023-11-01T20:45:30.435Z,99371.53
2023-11-01T20:48:07.754Z,99387.72
2023-11-01T20:50:42.222Z,99377.56
2023-11-01T20:53:09.034Z,99397.19
2023-11-01T20:55:36.921Z,99436.31
2023-11-01T20:58:07.528Z,99305.22
2023-11-01T21:00:52.274Z,99294.06
2023-11-01T21:03:22.339Z,99366.38
2023-11-01T21:05:50.384Z,99304.28
2023-11-01T21:11:18.778Z,99315.28
2023-11-01T21:14:05.392Z,99256.53
2023-11-01T21:17:02.871Z,99336.53
2023-11-01T21:19:29.909Z,99294.78
2023-11-01T21:21:58.302Z,99352.59
2023-11-01T21:24:44.874Z,99237.72
2023-11-01T21:27:13.977Z,99252.28
2023-11-01T21:29:42.394Z,99275.22
2023-11-01T21:32:13.868Z,99314.38
2023-11-01T21:34:56.642Z,99230.97
2023-11-01T21:37:51.687Z,99219.06
2023-11-01T21:40:26.387Z,99253.97
2023-11-01T21:43:54.152Z,99329.69
2023-11-01T21:49:45.841Z,99283.97
2023-11-01T21:52:51.655Z,99331.63
2023-11-01T21:55:55.393Z,99229.34
2023-11-01T21:58:35.326Z,99240.47
2023-11-01T22:01:46.305Z,99205.59
2023-11-01T22:04:38.769Z,99249.00
2023-11-01T22:07:46.294Z,99217.56
2023-11-01T22:10:24.169Z,99268.63
2023-11-01T22:13:02.109Z,99258.38
2023-11-01T22:15:38.458Z,99254.94
2023-11-01T22:18:10.410Z,99254.09
2023-11-01T22:20:51.536Z,99231.84
2023-11-01T22:23:39.213Z,99230.16
2023-11-01T22:26:23.974Z,99154.56
2023-11-01T22:28:58.321Z,99215.81
2023-11-01T22:32:10.194Z,99294.00
2023-11-01T22:34:50.799Z,99215.75
2023-11-01T22:40:08.427Z,99201.31
2023-11-01T22:42:37.924Z,99202.13
2023-11-01T22:45:05.240Z,99202.19
2023-11-01T22:47:33.822Z,99182.72
2023-11-01T22:50:01.276Z,99180.06
2023-11-01T22:52:28.299Z,99134.19
2023-11-01T22:55:01.232Z,99095.00
2023-11-01T22:57:32.605Z,99191.94
2023-11-01T23:00:00.088Z,99235.16
2023-11-01T23:02:37.446Z,99172.25
2023-11-01T23:05:08.640Z,99148.28
2023-11-01T23:08:10.381Z,99217.94
2023-11-01T23:13:19.678Z,99138.03
2023-11-01T23:15:58.052Z,99095.50
2023-11-01T23:18:32.586Z,99138.81
2023-11-01T23:21:06.788Z,99046.13
2023-11-01T23:23:44.278Z,99190.53
2023-11-01T23:26:21.813Z,99047.66
2023-11-01T23:29:10.223Z,99050.19
2023-11-01T23:31:53.249Z,99079.09
2023-11-01T23:34:46.187Z,99157.97
2023-11-01T23:37:58.177Z,99050.81
2023-11-01T23:40:48.729Z,98998.94
2023-11-01T23:43:15.855Z,99063.47
2023-11-01T23:48:25.915Z,99095.75
2023-11-01T23:51:08.534Z,99062.59
2023-11-01T23:53:36.663Z,99111.03
2023-11-01T23:56:08.183Z,99023.50
